sensor_id;sensor_type;location;lat;lon;timestamp;P1;durP1;ratioP1;P2;durP2;ratioP2
75358;SDS011;64046;51.978;5.934;2023-04-25T00:00:08;8.77;;;2.75;;
75358;SDS011;64046;51.978;5.934;2023-04-25T00:02:39;7.53;;;2.80;;
75358;SDS011;64046;51.978;5.934;2023-04-25T00:05:08;10.07;;;2.97;;
75358;SDS011;64046;51.978;5.934;2023-04-25T00:07:37;10.55;;;3.45;;
75358;SDS011;64046;51.978;5.934;2023-04-25T00:10:11;7.53;;;2.28;;
75358;SDS011;64046;51.978;5.934;2023-04-25T00:12:40;15.10;;;3.17;;
75358;SDS011;64046;51.978;5.934;2023-04-25T00:15:11;12.60;;;3.38;;
75358;SDS011;64046;51.978;5.934;2023-04-25T00:17:40;15.85;;;3.95;;
75358;SDS011;64046;51.978;5.934;2023-04-25T00:20:11;12.27;;;3.13;;
75358;SDS011;64046;51.978;5.934;2023-04-25T00:22:41;10.00;;;2.80;;
75358;SDS011;64046;51.978;5.934;2023-04-25T00:25:12;9.25;;;3.08;;
75358;SDS011;64046;51.978;5.934;2023-04-25T00:27:41;14.32;;;3.72;;
75358;SDS011;64046;51.978;5.934;2023-04-25T00:30:11;15.77;;;4.25;;
75358;SDS011;64046;51.978;5.934;2023-04-25T00:32:41;12.50;;;3.13;;
75358;SDS011;64046;51.978;5.934;2023-04-25T00:35:11;8.38;;;2.67;;
75358;SDS011;64046;51.978;5.934;2023-04-25T00:37:40;11.80;;;2.90;;
75358;SDS011;64046;51.978;5.934;2023-04-25T00:40:10;8.38;;;2.90;;
75358;SDS011;64046;51.978;5.934;2023-04-25T00:42:42;11.40;;;3.22;;
75358;SDS011;64046;51.978;5.934;2023-04-25T00:45:12;11.30;;;3.33;;
75358;SDS011;64046;51.978;5.934;2023-04-25T00:47:42;15.77;;;3.35;;
75358;SDS011;64046;51.978;5.934;2023-04-25T00:50:13;12.88;;;3.17;;
75358;SDS011;64046;51.978;5.934;2023-04-25T00:52:43;11.20;;;2.92;;
75358;SDS011;64046;51.978;5.934;2023-04-25T00:55:15;14.45;;;3.47;;
75358;SDS011;64046;51.978;5.934;2023-04-25T00:57:45;10.88;;;3.70;;
75358;SDS011;64046;51.978;5.934;2023-04-25T01:00:14;13.73;;;3.05;;
75358;SDS011;64046;51.978;5.934;2023-04-25T01:02:44;10.40;;;3.28;;
75358;SDS011;64046;51.978;5.934;2023-04-25T01:05:15;16.17;;;4.05;;
75358;SDS011;64046;51.978;5.934;2023-04-25T01:07:45;12.30;;;3.58;;
75358;SDS011;64046;51.978;5.934;2023-04-25T01:10:16;12.15;;;3.75;;
75358;SDS011;64046;51.978;5.934;2023-04-25T01:12:46;19.13;;;3.97;;
75358;SDS011;64046;51.978;5.934;2023-04-25T01:15:15;15.32;;;3.88;;
75358;SDS011;64046;51.978;5.934;2023-04-25T01:17:44;16.02;;;4.28;;
75358;SDS011;64046;51.978;5.934;2023-04-25T01:20:15;17.77;;;4.43;;
75358;SDS011;64046;51.978;5.934;2023-04-25T01:22:47;12.88;;;3.30;;
75358;SDS011;64046;51.978;5.934;2023-04-25T01:25:16;14.13;;;3.65;;
75358;SDS011;64046;51.978;5.934;2023-04-25T01:27:46;20.48;;;4.65;;
75358;SDS011;64046;51.978;5.934;2023-04-25T01:30:16;17.95;;;3.85;;
75358;SDS011;64046;51.978;5.934;2023-04-25T01:32:46;12.50;;;3.97;;
75358;SDS011;64046;51.978;5.934;2023-04-25T01:35:16;14.93;;;4.18;;
75358;SDS011;64046;51.978;5.934;2023-04-25T01:37:48;13.00;;;4.35;;
75358;SDS011;64046;51.978;5.934;2023-04-25T01:40:17;14.23;;;4.20;;
75358;SDS011;64046;51.978;5.934;2023-04-25T01:42:50;10.32;;;4.05;;
75358;SDS011;64046;51.978;5.934;2023-04-25T01:45:20;12.27;;;4.22;;
75358;SDS011;64046;51.978;5.934;2023-04-25T01:47:51;13.13;;;3.85;;
75358;SDS011;64046;51.978;5.934;2023-04-25T01:50:20;15.02;;;3.80;;
75358;SDS011;64046;51.978;5.934;2023-04-25T01:52:52;22.17;;;4.97;;
75358;SDS011;64046;51.978;5.934;2023-04-25T01:55:22;22.55;;;4.60;;
75358;SDS011;64046;51.978;5.934;2023-04-25T01:57:58;13.73;;;3.63;;
75358;SDS011;64046;51.978;5.934;2023-04-25T02:00:44;14.88;;;3.65;;
75358;SDS011;64046;51.978;5.934;2023-04-25T02:03:13;20.80;;;4.00;;
75358;SDS011;64046;51.978;5.934;2023-04-25T02:05:43;20.67;;;4.40;;
75358;SDS011;64046;51.978;5.934;2023-04-25T02:08:16;19.55;;;4.43;;
75358;SDS011;64046;51.978;5.934;2023-04-25T02:10:46;14.10;;;3.88;;
75358;SDS011;64046;51.978;5.934;2023-04-25T02:13:18;15.10;;;4.40;;
75358;SDS011;64046;51.978;5.934;2023-04-25T02:16:08;18.70;;;4.38;;
75358;SDS011;64046;51.978;5.934;2023-04-25T02:18:38;20.05;;;3.70;;
75358;SDS011;64046;51.978;5.934;2023-04-25T02:21:07;16.40;;;3.95;;
75358;SDS011;64046;51.978;5.934;2023-04-25T02:23:39;15.75;;;3.90;;
75358;SDS011;64046;51.978;5.934;2023-04-25T02:26:09;10.82;;;3.50;;
75358;SDS011;64046;51.978;5.934;2023-04-25T02:28:39;19.67;;;3.80;;
75358;SDS011;64046;51.978;5.934;2023-04-25T02:31:08;13.65;;;3.80;;
75358;SDS011;64046;51.978;5.934;2023-04-25T02:33:37;15.30;;;4.03;;
75358;SDS011;64046;51.978;5.934;2023-04-25T02:36:06;9.18;;;3.30;;
75358;SDS011;64046;51.978;5.934;2023-04-25T02:38:36;12.98;;;3.42;;
75358;SDS011;64046;51.978;5.934;2023-04-25T02:41:08;15.63;;;3.97;;
75358;SDS011;64046;51.978;5.934;2023-04-25T02:43:37;13.38;;;3.55;;
75358;SDS011;64046;51.978;5.934;2023-04-25T02:46:06;9.85;;;2.90;;
75358;SDS011;64046;51.978;5.934;2023-04-25T02:48:35;14.40;;;3.72;;
75358;SDS011;64046;51.978;5.934;2023-04-25T02:51:04;15.57;;;3.90;;
75358;SDS011;64046;51.978;5.934;2023-04-25T02:53:33;25.77;;;4.35;;
75358;SDS011;64046;51.978;5.934;2023-04-25T02:56:03;17.55;;;4.45;;
75358;SDS011;64046;51.978;5.934;2023-04-25T02:58:35;13.30;;;3.45;;
75358;SDS011;64046;51.978;5.934;2023-04-25T03:01:04;13.73;;;3.40;;
75358;SDS011;64046;51.978;5.934;2023-04-25T03:03:33;9.38;;;3.10;;
75358;SDS011;64046;51.978;5.934;2023-04-25T03:06:02;13.57;;;3.50;;
75358;SDS011;64046;51.978;5.934;2023-04-25T03:08:33;16.25;;;3.20;;
75358;SDS011;64046;51.978;5.934;2023-04-25T03:11:05;11.68;;;3.10;;
75358;SDS011;64046;51.978;5.934;2023-04-25T03:13:37;15.70;;;4.07;;
75358;SDS011;64046;51.978;5.934;2023-04-25T03:16:08;7.93;;;2.30;;
75358;SDS011;64046;51.978;5.934;2023-04-25T03:18:37;11.07;;;2.78;;
75358;SDS011;64046;51.978;5.934;2023-04-25T03:21:06;8.77;;;3.30;;
75358;SDS011;64046;51.978;5.934;2023-04-25T03:23:36;15.18;;;2.95;;
75358;SDS011;64046;51.978;5.934;2023-04-25T03:26:05;13.27;;;3.30;;
75358;SDS011;64046;51.978;5.934;2023-04-25T03:28:36;13.70;;;3.78;;
75358;SDS011;64046;51.978;5.934;2023-04-25T03:31:06;15.07;;;3.53;;
75358;SDS011;64046;51.978;5.934;2023-04-25T03:33:36;14.45;;;3.00;;
75358;SDS011;64046;51.978;5.934;2023-04-25T03:36:05;12.63;;;2.95;;
75358;SDS011;64046;51.978;5.934;2023-04-25T03:38:35;15.40;;;3.63;;
75358;SDS011;64046;51.978;5.934;2023-04-25T03:41:07;14.70;;;3.80;;
75358;SDS011;64046;51.978;5.934;2023-04-25T03:43:48;15.35;;;3.60;;
75358;SDS011;64046;51.978;5.934;2023-04-25T03:46:18;13.30;;;3.40;;
75358;SDS011;64046;51.978;5.934;2023-04-25T03:48:47;21.45;;;3.92;;
75358;SDS011;64046;51.978;5.934;2023-04-25T03:51:21;14.30;;;3.33;;
75358;SDS011;64046;51.978;5.934;2023-04-25T03:53:51;10.57;;;3.13;;
75358;SDS011;64046;51.978;5.934;2023-04-25T03:56:52;12.98;;;3.00;;
75358;SDS011;64046;51.978;5.934;2023-04-25T03:59:28;21.63;;;4.10;;
75358;SDS011;64046;51.978;5.934;2023-04-25T04:01:57;13.02;;;3.72;;
75358;SDS011;64046;51.978;5.934;2023-04-25T04:04:27;14.15;;;3.63;;
75358;SDS011;64046;51.978;5.934;2023-04-25T04:06:56;11.20;;;3.50;;
75358;SDS011;64046;51.978;5.934;2023-04-25T04:09:28;15.80;;;3.80;;
75358;SDS011;64046;51.978;5.934;2023-04-25T04:11:59;8.48;;;2.58;;
75358;SDS011;64046;51.978;5.934;2023-04-25T04:14:33;13.15;;;3.15;;
75358;SDS011;64046;51.978;5.934;2023-04-25T04:17:02;12.32;;;3.40;;
75358;SDS011;64046;51.978;5.934;2023-04-25T04:19:31;12.65;;;3.80;;
75358;SDS011;64046;51.978;5.934;2023-04-25T04:22:14;15.70;;;3.63;;
75358;SDS011;64046;51.978;5.934;2023-04-25T04:24:43;14.38;;;3.75;;
75358;SDS011;64046;51.978;5.934;2023-04-25T04:27:15;14.23;;;4.15;;
75358;SDS011;64046;51.978;5.934;2023-04-25T04:29:53;15.05;;;3.30;;
75358;SDS011;64046;51.978;5.934;2023-04-25T04:32:29;14.68;;;3.60;;
75358;SDS011;64046;51.978;5.934;2023-04-25T04:35:00;10.38;;;3.17;;
75358;SDS011;64046;51.978;5.934;2023-04-25T04:37:30;15.95;;;3.70;;
75358;SDS011;64046;51.978;5.934;2023-04-25T04:39:59;9.82;;;3.50;;
75358;SDS011;64046;51.978;5.934;2023-04-25T04:42:44;18.15;;;3.85;;
75358;SDS011;64046;51.978;5.934;2023-04-25T04:45:49;22.92;;;3.63;;
75358;SDS011;64046;51.978;5.934;2023-04-25T04:48:36;10.95;;;3.47;;
75358;SDS011;64046;51.978;5.934;2023-04-25T04:51:19;19.00;;;4.15;;
75358;SDS011;64046;51.978;5.934;2023-04-25T04:54:01;11.95;;;3.13;;
75358;SDS011;64046;51.978;5.934;2023-04-25T04:57:09;18.48;;;3.88;;
75358;SDS011;64046;51.978;5.934;2023-04-25T04:59:57;18.02;;;4.63;;
75358;SDS011;64046;51.978;5.934;2023-04-25T05:02:52;9.73;;;3.58;;
75358;SDS011;64046;51.978;5.934;2023-04-25T05:05:29;12.75;;;3.75;;
75358;SDS011;64046;51.978;5.934;2023-04-25T05:08:15;12.13;;;3.88;;
75358;SDS011;64046;51.978;5.934;2023-04-25T05:11:04;19.25;;;4.22;;
75358;SDS011;64046;51.978;5.934;2023-04-25T05:13:53;24.40;;;5.13;;
75358;SDS011;64046;51.978;5.934;2023-04-25T05:16:45;17.90;;;4.53;;
75358;SDS011;64046;51.978;5.934;2023-04-25T05:19:39;11.88;;;4.45;;
75358;SDS011;64046;51.978;5.934;2023-04-25T05:22:17;13.25;;;4.18;;
75358;SDS011;64046;51.978;5.934;2023-04-25T05:25:15;13.52;;;3.80;;
75358;SDS011;64046;51.978;5.934;2023-04-25T05:28:06;15.23;;;4.30;;
75358;SDS011;64046;51.978;5.934;2023-04-25T05:30:44;17.77;;;4.13;;
75358;SDS011;64046;51.978;5.934;2023-04-25T05:33:19;13.82;;;4.05;;
75358;SDS011;64046;51.978;5.934;2023-04-25T05:35:51;15.25;;;4.07;;
75358;SDS011;64046;51.978;5.934;2023-04-25T05:38:21;12.88;;;3.70;;
75358;SDS011;64046;51.978;5.934;2023-04-25T05:41:09;13.93;;;4.05;;
75358;SDS011;64046;51.978;5.934;2023-04-25T05:43:42;14.85;;;3.70;;
75358;SDS011;64046;51.978;5.934;2023-04-25T05:46:35;15.25;;;4.15;;
75358;SDS011;64046;51.978;5.934;2023-04-25T05:49:23;20.10;;;3.78;;
75358;SDS011;64046;51.978;5.934;2023-04-25T05:52:00;9.80;;;3.22;;
75358;SDS011;64046;51.978;5.934;2023-04-25T05:54:44;15.32;;;3.95;;
75358;SDS011;64046;51.978;5.934;2023-04-25T05:57:20;14.75;;;3.33;;
75358;SDS011;64046;51.978;5.934;2023-04-25T05:59:50;14.18;;;3.63;;
75358;SDS011;64046;51.978;5.934;2023-04-25T06:02:20;19.50;;;4.07;;
75358;SDS011;64046;51.978;5.934;2023-04-25T06:04:50;12.38;;;3.53;;
75358;SDS011;64046;51.978;5.934;2023-04-25T06:07:24;10.63;;;4.00;;
75358;SDS011;64046;51.978;5.934;2023-04-25T06:09:53;12.40;;;3.45;;
75358;SDS011;64046;51.978;5.934;2023-04-25T06:12:22;11.82;;;3.28;;
75358;SDS011;64046;51.978;5.934;2023-04-25T06:14:52;13.02;;;3.50;;
75358;SDS011;64046;51.978;5.934;2023-04-25T06:17:21;10.55;;;3.75;;
75358;SDS011;64046;51.978;5.934;2023-04-25T06:19:51;15.63;;;4.38;;
75358;SDS011;64046;51.978;5.934;2023-04-25T06:22:20;15.73;;;3.42;;
75358;SDS011;64046;51.978;5.934;2023-04-25T06:24:53;11.05;;;3.97;;
75358;SDS011;64046;51.978;5.934;2023-04-25T06:27:23;15.23;;;3.45;;
75358;SDS011;64046;51.978;5.934;2023-04-25T06:29:52;7.00;;;2.83;;
75358;SDS011;64046;51.978;5.934;2023-04-25T06:32:21;8.73;;;2.90;;
75358;SDS011;64046;51.978;5.934;2023-04-25T06:34:51;12.52;;;3.08;;
75358;SDS011;64046;51.978;5.934;2023-04-25T06:37:21;11.73;;;3.45;;
75358;SDS011;64046;51.978;5.934;2023-04-25T06:39:54;9.88;;;3.38;;
75358;SDS011;64046;51.978;5.934;2023-04-25T06:42:23;13.75;;;3.40;;
75358;SDS011;64046;51.978;5.934;2023-04-25T06:44:56;8.48;;;2.80;;
75358;SDS011;64046;51.978;5.934;2023-04-25T06:47:28;7.72;;;2.58;;
75358;SDS011;64046;51.978;5.934;2023-04-25T06:49:59;12.30;;;2.88;;
75358;SDS011;64046;51.978;5.934;2023-04-25T06:52:29;5.90;;;2.30;;
75358;SDS011;64046;51.978;5.934;2023-04-25T06:55:01;7.93;;;3.30;;
75358;SDS011;64046;51.978;5.934;2023-04-25T06:57:48;5.80;;;2.30;;
75358;SDS011;64046;51.978;5.934;2023-04-25T07:00:37;10.13;;;3.35;;
75358;SDS011;64046;51.978;5.934;2023-04-25T07:03:06;11.27;;;2.80;;
75358;SDS011;64046;51.978;5.934;2023-04-25T07:05:35;8.82;;;2.92;;
75358;SDS011;64046;51.978;5.934;2023-04-25T07:08:04;10.48;;;2.80;;
75358;SDS011;64046;51.978;5.934;2023-04-25T07:10:36;11.48;;;3.13;;
75358;SDS011;64046;51.978;5.934;2023-04-25T07:13:06;11.30;;;2.70;;
75358;SDS011;64046;51.978;5.934;2023-04-25T07:15:35;7.15;;;2.88;;
75358;SDS011;64046;51.978;5.934;2023-04-25T07:18:05;11.60;;;3.15;;
75358;SDS011;64046;51.978;5.934;2023-04-25T07:20:34;15.18;;;2.70;;
75358;SDS011;64046;51.978;5.934;2023-04-25T07:23:04;13.23;;;2.85;;
75358;SDS011;64046;51.978;5.934;2023-04-25T07:25:35;10.35;;;2.70;;
75358;SDS011;64046;51.978;5.934;2023-04-25T07:28:05;12.25;;;3.72;;
75358;SDS011;64046;51.978;5.934;2023-04-25T07:30:35;19.38;;;3.40;;
75358;SDS011;64046;51.978;5.934;2023-04-25T07:33:04;10.80;;;2.65;;
75358;SDS011;64046;51.978;5.934;2023-04-25T07:35:34;13.20;;;3.28;;
75358;SDS011;64046;51.978;5.934;2023-04-25T07:38:03;8.85;;;2.63;;
75358;SDS011;64046;51.978;5.934;2023-04-25T07:40:32;14.00;;;2.88;;
75358;SDS011;64046;51.978;5.934;2023-04-25T07:43:08;13.88;;;2.58;;
75358;SDS011;64046;51.978;5.934;2023-04-25T07:45:48;10.68;;;3.03;;
75358;SDS011;64046;51.978;5.934;2023-04-25T07:48:19;8.55;;;2.63;;
75358;SDS011;64046;51.978;5.934;2023-04-25T07:50:51;12.43;;;2.65;;
75358;SDS011;64046;51.978;5.934;2023-04-25T07:53:20;8.25;;;2.20;;
75358;SDS011;64046;51.978;5.934;2023-04-25T07:55:57;6.30;;;2.22;;
75358;SDS011;64046;51.978;5.934;2023-04-25T07:58:32;9.25;;;2.42;;
75358;SDS011;64046;51.978;5.934;2023-04-25T08:01:04;4.53;;;2.13;;
75358;SDS011;64046;51.978;5.934;2023-04-25T08:03:50;6.03;;;2.00;;
75358;SDS011;64046;51.978;5.934;2023-04-25T08:06:35;10.35;;;2.75;;
75358;SDS011;64046;51.978;5.934;2023-04-25T08:09:08;9.38;;;2.35;;
75358;SDS011;64046;51.978;5.934;2023-04-25T08:11:41;11.27;;;2.65;;
75358;SDS011;64046;51.978;5.934;2023-04-25T08:14:14;11.93;;;2.30;;
75358;SDS011;64046;51.978;5.934;2023-04-25T08:16:44;8.18;;;2.38;;
75358;SDS011;64046;51.978;5.934;2023-04-25T08:19:14;7.82;;;1.80;;
75358;SDS011;64046;51.978;5.934;2023-04-25T08:21:45;7.45;;;1.70;;
75358;SDS011;64046;51.978;5.934;2023-04-25T08:24:19;10.38;;;2.38;;
75358;SDS011;64046;51.978;5.934;2023-04-25T08:26:48;13.20;;;2.13;;
75358;SDS011;64046;51.978;5.934;2023-04-25T08:29:23;8.38;;;2.00;;
75358;SDS011;64046;51.978;5.934;2023-04-25T08:31:52;6.18;;;1.40;;
75358;SDS011;64046;51.978;5.934;2023-04-25T08:34:21;6.32;;;2.00;;
75358;SDS011;64046;51.978;5.934;2023-04-25T08:36:52;6.90;;;1.63;;
75358;SDS011;64046;51.978;5.934;2023-04-25T08:39:41;9.75;;;1.90;;
75358;SDS011;64046;51.978;5.934;2023-04-25T08:42:29;8.77;;;2.00;;
75358;SDS011;64046;51.978;5.934;2023-04-25T08:45:04;10.30;;;1.80;;
75358;SDS011;64046;51.978;5.934;2023-04-25T08:47:38;7.35;;;1.92;;
75358;SDS011;64046;51.978;5.934;2023-04-25T08:50:08;6.55;;;1.77;;
75358;SDS011;64046;51.978;5.934;2023-04-25T08:52:39;9.00;;;1.73;;
75358;SDS011;64046;51.978;5.934;2023-04-25T08:55:12;6.22;;;1.88;;
75358;SDS011;64046;51.978;5.934;2023-04-25T08:57:42;7.38;;;1.80;;
75358;SDS011;64046;51.978;5.934;2023-04-25T09:00:16;9.32;;;2.03;;
75358;SDS011;64046;51.978;5.934;2023-04-25T09:02:47;9.98;;;2.10;;
75358;SDS011;64046;51.978;5.934;2023-04-25T09:05:16;11.60;;;2.05;;
75358;SDS011;64046;51.978;5.934;2023-04-25T09:07:47;8.18;;;2.15;;
75358;SDS011;64046;51.978;5.934;2023-04-25T09:10:16;8.75;;;2.13;;
75358;SDS011;64046;51.978;5.934;2023-04-25T09:12:49;5.18;;;1.63;;
75358;SDS011;64046;51.978;5.934;2023-04-25T09:15:41;11.20;;;2.10;;
75358;SDS011;64046;51.978;5.934;2023-04-25T09:18:30;11.38;;;1.92;;
75358;SDS011;64046;51.978;5.934;2023-04-25T09:21:04;6.85;;;1.80;;
75358;SDS011;64046;51.978;5.934;2023-04-25T09:23:44;5.97;;;1.58;;
75358;SDS011;64046;51.978;5.934;2023-04-25T09:26:15;13.02;;;1.80;;
75358;SDS011;64046;51.978;5.934;2023-04-25T09:28:45;5.60;;;1.30;;
75358;SDS011;64046;51.978;5.934;2023-04-25T09:31:23;4.63;;;1.45;;
75358;SDS011;64046;51.978;5.934;2023-04-25T09:33:58;7.03;;;1.55;;
75358;SDS011;64046;51.978;5.934;2023-04-25T09:36:31;9.38;;;2.10;;
75358;SDS011;64046;51.978;5.934;2023-04-25T09:39:18;5.65;;;1.60;;
75358;SDS011;64046;51.978;5.934;2023-04-25T09:41:55;9.23;;;1.80;;
75358;SDS011;64046;51.978;5.934;2023-04-25T09:44:25;7.90;;;1.63;;
75358;SDS011;64046;51.978;5.934;2023-04-25T09:46:57;9.82;;;1.77;;
75358;SDS011;64046;51.978;5.934;2023-04-25T09:49:30;5.13;;;1.23;;
75358;SDS011;64046;51.978;5.934;2023-04-25T09:52:03;6.90;;;1.33;;
75358;SDS011;64046;51.978;5.934;2023-04-25T09:54:46;3.58;;;1.50;;
75358;SDS011;64046;51.978;5.934;2023-04-25T09:57:24;6.28;;;1.73;;
75358;SDS011;64046;51.978;5.934;2023-04-25T09:59:56;11.32;;;1.75;;
75358;SDS011;64046;51.978;5.934;2023-04-25T10:02:32;6.78;;;1.75;;
75358;SDS011;64046;51.978;5.934;2023-04-25T10:05:06;9.27;;;1.95;;
75358;SDS011;64046;51.978;5.934;2023-04-25T10:07:39;5.85;;;1.65;;
75358;SDS011;64046;51.978;5.934;2023-04-25T10:10:13;4.13;;;1.30;;
75358;SDS011;64046;51.978;5.934;2023-04-25T10:12:44;4.30;;;1.48;;
75358;SDS011;64046;51.978;5.934;2023-04-25T10:15:14;5.63;;;1.55;;
75358;SDS011;64046;51.978;5.934;2023-04-25T10:17:46;3.92;;;1.15;;
75358;SDS011;64046;51.978;5.934;2023-04-25T10:20:17;8.38;;;1.70;;
75358;SDS011;64046;51.978;5.934;2023-04-25T10:22:47;6.43;;;1.60;;
75358;SDS011;64046;51.978;5.934;2023-04-25T10:25:20;10.63;;;1.85;;
75358;SDS011;64046;51.978;5.934;2023-04-25T10:27:49;9.10;;;1.92;;
75358;SDS011;64046;51.978;5.934;2023-04-25T10:30:19;5.50;;;1.40;;
75358;SDS011;64046;51.978;5.934;2023-04-25T10:32:51;7.93;;;2.08;;
75358;SDS011;64046;51.978;5.934;2023-04-25T10:35:24;9.20;;;1.88;;
75358;SDS011;64046;51.978;5.934;2023-04-25T10:38:02;4.18;;;1.60;;
75358;SDS011;64046;51.978;5.934;2023-04-25T10:40:32;8.43;;;1.65;;
75358;SDS011;64046;51.978;5.934;2023-04-25T10:46:17;7.18;;;1.85;;
75358;SDS011;64046;51.978;5.934;2023-04-25T10:48:50;7.20;;;2.00;;
75358;SDS011;64046;51.978;5.934;2023-04-25T10:51:20;7.95;;;1.60;;
75358;SDS011;64046;51.978;5.934;2023-04-25T10:53:57;11.25;;;1.77;;
75358;SDS011;64046;51.978;5.934;2023-04-25T10:56:28;10.27;;;2.10;;
75358;SDS011;64046;51.978;5.934;2023-04-25T10:59:05;7.30;;;1.75;;
75358;SDS011;64046;51.978;5.934;2023-04-25T11:01:36;5.82;;;1.58;;
75358;SDS011;64046;51.978;5.934;2023-04-25T11:04:21;5.38;;;1.63;;
75358;SDS011;64046;51.978;5.934;2023-04-25T11:06:55;9.35;;;1.58;;
75358;SDS011;64046;51.978;5.934;2023-04-25T11:09:31;7.72;;;2.15;;
75358;SDS011;64046;51.978;5.934;2023-04-25T11:12:01;3.33;;;1.85;;
75358;SDS011;64046;51.978;5.934;2023-04-25T11:14:30;6.22;;;1.70;;
75358;SDS011;64046;51.978;5.934;2023-04-25T11:17:00;5.50;;;1.50;;
75358;SDS011;64046;51.978;5.934;2023-04-25T11:19:32;9.90;;;1.65;;
75358;SDS011;64046;51.978;5.934;2023-04-25T11:22:01;6.65;;;1.58;;
75358;SDS011;64046;51.978;5.934;2023-04-25T11:24:33;6.85;;;1.50;;
75358;SDS011;64046;51.978;5.934;2023-04-25T11:27:02;5.65;;;1.40;;
75358;SDS011;64046;51.978;5.934;2023-04-25T11:29:33;4.88;;;1.50;;
75358;SDS011;64046;51.978;5.934;2023-04-25T11:32:03;4.72;;;1.52;;
75358;SDS011;64046;51.978;5.934;2023-04-25T11:34:35;5.28;;;1.65;;
75358;SDS011;64046;51.978;5.934;2023-04-25T11:37:04;4.18;;;1.42;;
75358;SDS011;64046;51.978;5.934;2023-04-25T11:39:34;5.00;;;1.40;;
75358;SDS011;64046;51.978;5.934;2023-04-25T11:42:03;3.88;;;1.38;;
75358;SDS011;64046;51.978;5.934;2023-04-25T11:44:33;4.65;;;1.40;;
75358;SDS011;64046;51.978;5.934;2023-04-25T11:47:02;2.85;;;1.15;;
75358;SDS011;64046;51.978;5.934;2023-04-25T11:49:31;3.10;;;1.33;;
75358;SDS011;64046;51.978;5.934;2023-04-25T11:52:05;7.47;;;1.40;;
75358;SDS011;64046;51.978;5.934;2023-04-25T11:54:35;4.28;;;1.60;;
75358;SDS011;64046;51.978;5.934;2023-04-25T11:57:05;7.35;;;1.92;;
75358;SDS011;64046;51.978;5.934;2023-04-25T11:59:34;7.95;;;1.48;;
75358;SDS011;64046;51.978;5.934;2023-04-25T12:02:03;7.13;;;1.38;;
75358;SDS011;64046;51.978;5.934;2023-04-25T12:04:32;2.28;;;1.23;;
75358;SDS011;64046;51.978;5.934;2023-04-25T12:07:04;2.92;;;1.20;;
75358;SDS011;64046;51.978;5.934;2023-04-25T12:09:33;7.38;;;1.73;;
75358;SDS011;64046;51.978;5.934;2023-04-25T12:12:02;3.65;;;1.20;;
75358;SDS011;64046;51.978;5.934;2023-04-25T12:14:33;4.93;;;1.20;;
75358;SDS011;64046;51.978;5.934;2023-04-25T12:17:03;5.22;;;1.58;;
75358;SDS011;64046;51.978;5.934;2023-04-25T12:19:34;5.13;;;1.70;;
75358;SDS011;64046;51.978;5.934;2023-04-25T12:22:19;5.05;;;1.50;;
75358;SDS011;64046;51.978;5.934;2023-04-25T12:24:49;2.38;;;1.27;;
75358;SDS011;64046;51.978;5.934;2023-04-25T12:27:19;4.30;;;1.33;;
75358;SDS011;64046;51.978;5.934;2023-04-25T12:29:52;5.53;;;1.40;;
75358;SDS011;64046;51.978;5.934;2023-04-25T12:32:22;4.32;;;1.48;;
75358;SDS011;64046;51.978;5.934;2023-04-25T12:34:52;7.28;;;1.77;;
75358;SDS011;64046;51.978;5.934;2023-04-25T12:37:24;8.27;;;1.55;;
75358;SDS011;64046;51.978;5.934;2023-04-25T12:39:53;7.70;;;1.52;;
75358;SDS011;64046;51.978;5.934;2023-04-25T12:42:22;5.45;;;1.50;;
75358;SDS011;64046;51.978;5.934;2023-04-25T12:44:51;4.72;;;1.60;;
75358;SDS011;64046;51.978;5.934;2023-04-25T12:47:20;6.47;;;1.65;;
75358;SDS011;64046;51.978;5.934;2023-04-25T12:49:49;6.07;;;1.75;;
75358;SDS011;64046;51.978;5.934;2023-04-25T12:52:18;7.35;;;1.65;;
75358;SDS011;64046;51.978;5.934;2023-04-25T12:54:50;8.50;;;2.13;;
75358;SDS011;64046;51.978;5.934;2023-04-25T12:57:19;5.68;;;1.73;;
75358;SDS011;64046;51.978;5.934;2023-04-25T12:59:48;6.53;;;1.42;;
75358;SDS011;64046;51.978;5.934;2023-04-25T13:02:19;4.88;;;1.45;;
75358;SDS011;64046;51.978;5.934;2023-04-25T13:04:48;3.72;;;1.83;;
75358;SDS011;64046;51.978;5.934;2023-04-25T13:07:17;10.02;;;2.17;;
75358;SDS011;64046;51.978;5.934;2023-04-25T13:09:46;7.85;;;1.60;;
75358;SDS011;64046;51.978;5.934;2023-04-25T13:12:18;5.30;;;1.30;;
75358;SDS011;64046;51.978;5.934;2023-04-25T13:14:47;6.72;;;1.85;;
75358;SDS011;64046;51.978;5.934;2023-04-25T13:17:16;7.50;;;1.70;;
75358;SDS011;64046;51.978;5.934;2023-04-25T13:19:45;7.68;;;1.65;;
75358;SDS011;64046;51.978;5.934;2023-04-25T13:22:14;8.32;;;1.95;;
75358;SDS011;64046;51.978;5.934;2023-04-25T13:24:45;10.27;;;2.20;;
75358;SDS011;64046;51.978;5.934;2023-04-25T13:27:17;6.10;;;1.60;;
75358;SDS011;64046;51.978;5.934;2023-04-25T13:29:47;10.57;;;2.20;;
75358;SDS011;64046;51.978;5.934;2023-04-25T13:32:16;4.05;;;1.45;;
75358;SDS011;64046;51.978;5.934;2023-04-25T13:34:45;3.85;;;1.20;;
75358;SDS011;64046;51.978;5.934;2023-04-25T13:37:14;3.92;;;1.30;;
75358;SDS011;64046;51.978;5.934;2023-04-25T13:39:44;4.63;;;1.48;;
75358;SDS011;64046;51.978;5.934;2023-04-25T13:42:13;9.13;;;1.67;;
75358;SDS011;64046;51.978;5.934;2023-04-25T13:44:45;5.30;;;1.85;;
75358;SDS011;64046;51.978;5.934;2023-04-25T13:47:14;5.15;;;1.65;;
75358;SDS011;64046;51.978;5.934;2023-04-25T13:49:43;5.78;;;1.40;;
75358;SDS011;64046;51.978;5.934;2023-04-25T13:52:12;4.53;;;1.30;;
75358;SDS011;64046;51.978;5.934;2023-04-25T13:54:41;4.00;;;1.38;;
75358;SDS011;64046;51.978;5.934;2023-04-25T13:57:10;6.57;;;1.95;;
75358;SDS011;64046;51.978;5.934;2023-04-25T13:59:39;5.40;;;2.00;;
75358;SDS011;64046;51.978;5.934;2023-04-25T14:02:11;7.80;;;1.48;;
75358;SDS011;64046;51.978;5.934;2023-04-25T14:04:41;5.53;;;1.83;;
75358;SDS011;64046;51.978;5.934;2023-04-25T14:07:10;7.35;;;1.33;;
75358;SDS011;64046;51.978;5.934;2023-04-25T14:09:41;3.17;;;1.30;;
75358;SDS011;64046;51.978;5.934;2023-04-25T14:12:11;4.05;;;1.27;;
75358;SDS011;64046;51.978;5.934;2023-04-25T14:14:40;4.18;;;1.30;;
75358;SDS011;64046;51.978;5.934;2023-04-25T14:17:11;7.93;;;1.52;;
75358;SDS011;64046;51.978;5.934;2023-04-25T14:19:40;9.80;;;1.70;;
75358;SDS011;64046;51.978;5.934;2023-04-25T14:22:11;8.02;;;1.50;;
75358;SDS011;64046;51.978;5.934;2023-04-25T14:24:40;4.00;;;1.52;;
75358;SDS011;64046;51.978;5.934;2023-04-25T14:27:09;6.07;;;1.40;;
75358;SDS011;64046;51.978;5.934;2023-04-25T14:29:39;5.63;;;1.40;;
75358;SDS011;64046;51.978;5.934;2023-04-25T14:32:08;6.22;;;1.40;;
75358;SDS011;64046;51.978;5.934;2023-04-25T14:34:40;6.35;;;1.75;;
75358;SDS011;64046;51.978;5.934;2023-04-25T14:37:09;5.07;;;1.40;;
75358;SDS011;64046;51.978;5.934;2023-04-25T14:39:38;4.45;;;1.25;;
75358;SDS011;64046;51.978;5.934;2023-04-25T14:42:07;5.55;;;1.90;;
75358;SDS011;64046;51.978;5.934;2023-04-25T14:44:37;6.55;;;1.20;;
75358;SDS011;64046;51.978;5.934;2023-04-25T14:47:06;6.32;;;1.50;;
75358;SDS011;64046;51.978;5.934;2023-04-25T14:49:35;4.22;;;1.67;;
75358;SDS011;64046;51.978;5.934;2023-04-25T14:52:07;4.30;;;1.27;;
75358;SDS011;64046;51.978;5.934;2023-04-25T14:54:36;5.78;;;1.60;;
75358;SDS011;64046;51.978;5.934;2023-04-25T14:57:05;4.03;;;1.33;;
75358;SDS011;64046;51.978;5.934;2023-04-25T14:59:34;3.50;;;1.40;;
75358;SDS011;64046;51.978;5.934;2023-04-25T15:02:04;5.35;;;1.50;;
75358;SDS011;64046;51.978;5.934;2023-04-25T15:04:34;10.93;;;2.13;;
75358;SDS011;64046;51.978;5.934;2023-04-25T15:07:03;7.18;;;1.50;;
75358;SDS011;64046;51.978;5.934;2023-04-25T15:09:35;5.95;;;1.40;;
75358;SDS011;64046;51.978;5.934;2023-04-25T15:12:04;6.25;;;1.60;;
75358;SDS011;64046;51.978;5.934;2023-04-25T15:14:33;5.88;;;1.40;;